createdAt,value
2024-05-09T00:01:14.837Z,18.60
2024-05-09T00:06:17.428Z,18.77
2024-05-09T00:16:24.628Z,16.58
2024-05-09T00:21:27.033Z,15.82
2024-05-09T00:26:32.025Z,17.48
2024-05-09T00:31:34.329Z,16.73
2024-05-09T00:36:36.568Z,17.95
2024-05-09T00:41:41.402Z,17.58
2024-05-09T00:46:43.865Z,19.77
2024-05-09T00:51:46.102Z,16.58
2024-05-09T00:56:51.369Z,19.88
2024-05-09T01:01:54.093Z,22.83
2024-05-09T01:12:01.618Z,16.33
2024-05-09T01:17:04.405Z,22.88
2024-05-09T01:22:06.862Z,19.50
2024-05-09T01:27:11.695Z,14.75
2024-05-09T01:32:14.057Z,18.10
2024-05-09T01:37:16.323Z,19.73
2024-05-09T01:42:21.135Z,18.38
2024-05-09T01:47:23.567Z,21.35
2024-05-09T01:52:25.867Z,16.58
2024-05-09T01:57:31.085Z,21.42
2024-05-09T02:02:34.317Z,19.60
2024-05-09T02:07:36.613Z,19.35
2024-05-09T02:12:41.704Z,16.67
2024-05-09T02:17:44.221Z,27.70
2024-05-09T02:22:46.868Z,22.52
2024-05-09T02:27:51.761Z,20.95
2024-05-09T02:32:54.096Z,17.15
2024-05-09T02:37:56.447Z,27.15
2024-05-09T02:43:01.365Z,18.63
2024-05-09T02:48:04.220Z,27.95
2024-05-09T02:53:06.734Z,27.55
2024-05-09T02:58:12.095Z,22.15
2024-05-09T03:03:15.685Z,18.20
2024-05-09T03:08:18.472Z,17.77
2024-05-09T03:13:23.693Z,22.00
2024-05-09T03:18:25.984Z,16.13
2024-05-09T03:23:28.463Z,16.90
2024-05-09T03:28:33.495Z,24.70
2024-05-09T03:33:36.009Z,23.63
2024-05-09T03:38:38.709Z,22.08
2024-05-09T03:48:46.476Z,23.42
2024-05-09T03:53:49.567Z,29.92
2024-05-09T03:58:55.433Z,27.60
2024-05-09T04:03:58.514Z,23.48
2024-05-09T04:09:00.955Z,26.10
2024-05-09T04:14:06.385Z,23.83
2024-05-09T04:19:08.859Z,23.38
2024-05-09T04:24:11.376Z,26.95
2024-05-09T04:29:16.475Z,27.98
2024-05-09T04:34:19.092Z,26.42
2024-05-09T04:39:21.358Z,25.00
2024-05-09T04:44:26.299Z,29.15
2024-05-09T04:49:28.819Z,24.35
2024-05-09T04:54:36.223Z,24.23
2024-05-09T04:59:41.681Z,25.88
2024-05-09T05:04:45.616Z,35.05
2024-05-09T05:09:48.170Z,31.70
2024-05-09T05:14:53.228Z,31.08
2024-05-09T05:19:55.583Z,26.73
2024-05-09T05:24:58.146Z,60.97
2024-05-09T05:30:04.607Z,39.42
2024-05-09T05:35:08.390Z,32.17
2024-05-09T05:40:14.643Z,42.03
2024-05-09T05:45:22.357Z,38.63
2024-05-09T05:50:32.290Z,42.75
2024-05-09T05:55:39.570Z,31.00
2024-05-09T06:00:45.668Z,30.50
2024-05-09T06:05:47.973Z,34.08
2024-05-09T06:10:50.509Z,28.15
2024-05-09T06:15:55.725Z,30.63
2024-05-09T06:20:58.063Z,31.85
2024-05-09T06:26:00.444Z,27.77
2024-05-09T06:31:05.642Z,23.90
2024-05-09T06:36:08.492Z,30.52
2024-05-09T06:41:10.877Z,22.38
2024-05-09T06:46:15.738Z,23.63
2024-05-09T06:51:18.040Z,30.98
2024-05-09T06:56:20.344Z,28.50
2024-05-09T07:01:25.188Z,26.30
2024-05-09T07:06:27.456Z,27.00
2024-05-09T07:11:29.854Z,26.13
2024-05-09T07:16:35.114Z,28.55
2024-05-09T07:21:37.391Z,26.15
2024-05-09T07:26:39.863Z,23.95
2024-05-09T07:36:47.314Z,24.42
2024-05-09T07:41:49.773Z,25.23
2024-05-09T07:53:29.940Z,23.05
2024-05-09T07:57:38.852Z,25.00
2024-05-09T08:02:43.722Z,27.48
2024-05-09T08:07:46.008Z,26.23
2024-05-09T08:12:48.375Z,24.33
2024-05-09T08:22:55.590Z,24.85
2024-05-09T08:33:03.649Z,24.38
2024-05-09T08:38:07.522Z,27.15
2024-05-09T08:43:12.089Z,23.83
2024-05-09T08:48:19.990Z,21.77
2024-05-09T08:53:22.646Z,21.55
2024-05-09T08:58:26.495Z,20.83
2024-05-09T09:03:33.811Z,19.13
2024-05-09T09:08:39.515Z,20.92
2024-05-09T09:13:41.994Z,16.67
2024-05-09T09:18:47.088Z,16.92
2024-05-09T09:23:49.425Z,13.20
2024-05-09T09:28:52.228Z,15.50
2024-05-09T09:33:57.770Z,15.48
2024-05-09T09:39:00.511Z,10.55
2024-05-09T09:44:04.417Z,8.70
2024-05-09T09:49:10.255Z,9.02
2024-05-09T09:54:14.033Z,8.80
2024-05-09T09:59:16.620Z,7.65
2024-05-09T10:04:21.666Z,5.93
2024-05-09T10:09:24.460Z,4.55
2024-05-09T10:14:26.886Z,6.15
2024-05-09T10:19:33.773Z,5.78
2024-05-09T10:24:49.329Z,5.22
2024-05-09T10:29:52.742Z,4.47
2024-05-09T10:35:07.954Z,4.70
2024-05-09T10:45:19.708Z,8.98
2024-05-09T10:50:28.786Z,4.88
2024-05-09T10:55:34.309Z,3.33
2024-05-09T11:00:36.918Z,6.88
2024-05-09T11:05:43.248Z,5.13
2024-05-09T11:10:46.417Z,5.82
2024-05-09T11:15:49.020Z,4.32
2024-05-09T11:20:55.348Z,6.22
2024-05-09T11:25:58.965Z,4.05
2024-05-09T11:31:08.959Z,4.97
2024-05-09T11:36:15.374Z,5.07
2024-05-09T11:41:18.803Z,4.00
2024-05-09T11:46:21.309Z,4.75
2024-05-09T11:51:26.285Z,4.28
2024-05-09T11:56:28.724Z,3.78
2024-05-09T12:01:31.209Z,4.60
2024-05-09T12:06:36.375Z,4.68
2024-05-09T12:11:38.704Z,5.80
2024-05-09T12:16:41.141Z,3.58
2024-05-09T12:21:46.340Z,4.90
2024-05-09T12:26:48.636Z,5.50
2024-05-09T12:31:51.047Z,3.63
2024-05-09T12:36:56.106Z,3.55
2024-05-09T12:41:58.440Z,4.03
2024-05-09T12:47:00.751Z,3.22
2024-05-09T12:52:06.242Z,9.30
2024-05-09T12:57:08.606Z,4.55
2024-05-09T13:02:11.046Z,4.43
2024-05-09T13:07:16.339Z,3.88
2024-05-09T13:12:19.321Z,4.68
2024-05-09T13:17:22.405Z,3.92
2024-05-09T13:22:27.626Z,4.28
2024-05-09T13:27:29.957Z,5.25
2024-05-09T13:32:32.660Z,6.05
2024-05-09T13:37:37.864Z,4.30
2024-05-09T13:42:40.239Z,4.60
2024-05-09T13:47:42.788Z,4.10
2024-05-09T13:52:47.764Z,4.43
2024-05-09T13:57:50.369Z,5.03
2024-05-09T14:02:52.675Z,5.93
2024-05-09T14:07:58.544Z,3.58
2024-05-09T14:13:01.435Z,4.90
2024-05-09T14:18:04.301Z,4.25
2024-05-09T14:23:09.568Z,4.28
2024-05-09T14:28:13.198Z,2.72
2024-05-09T14:33:16.139Z,4.95
2024-05-09T14:38:21.233Z,3.92
2024-05-09T14:43:23.558Z,4.00
2024-05-09T14:48:26.064Z,2.42
2024-05-09T14:53:30.967Z,3.78
2024-05-09T14:58:33.334Z,3.50
2024-05-09T15:03:35.865Z,4.15
2024-05-09T15:08:40.797Z,4.20
2024-05-09T15:13:43.052Z,3.50
2024-05-09T15:18:45.718Z,6.35
2024-05-09T15:23:50.968Z,5.28
2024-05-09T15:28:53.219Z,4.45
2024-05-09T15:33:55.882Z,3.38
2024-05-09T15:39:01.184Z,3.15
2024-05-09T15:44:03.494Z,3.47
2024-05-09T15:49:05.934Z,6.28
2024-05-09T15:54:11.134Z,3.60
2024-05-09T15:59:13.450Z,4.25
2024-05-09T16:04:15.888Z,4.88
2024-05-09T16:09:21.230Z,3.72
2024-05-09T16:14:23.517Z,3.42
2024-05-09T16:19:26.087Z,3.58
2024-05-09T16:24:31.314Z,4.55
2024-05-09T16:29:33.884Z,4.75
2024-05-09T16:34:36.198Z,5.18
2024-05-09T16:39:41.104Z,4.03
2024-05-09T16:44:43.416Z,4.70
2024-05-09T16:49:45.672Z,6.28
2024-05-09T16:54:51.100Z,3.67
2024-05-09T16:59:53.384Z,5.03
2024-05-09T17:04:55.819Z,5.22
2024-05-09T17:10:00.803Z,5.47
2024-05-09T17:15:03.260Z,4.65
2024-05-09T17:20:10.433Z,9.02
2024-05-09T17:25:20.812Z,3.60
2024-05-09T17:30:28.985Z,5.25
2024-05-09T17:35:37.316Z,6.82
2024-05-09T17:40:42.543Z,5.40
2024-05-09T17:45:44.895Z,5.40
2024-05-09T17:50:47.181Z,4.53
2024-05-09T17:55:52.084Z,5.03
2024-05-09T18:00:54.527Z,4.82
2024-05-09T18:05:57.234Z,7.65
2024-05-09T18:11:02.212Z,3.50
2024-05-09T18:16:05.036Z,9.00
2024-05-09T18:21:07.291Z,4.07
2024-05-09T18:26:13.122Z,5.75
2024-05-09T18:31:15.583Z,4.70
2024-05-09T18:36:18.054Z,3.80
2024-05-09T18:41:23.004Z,5.97
2024-05-09T18:46:25.506Z,4.85
2024-05-09T18:51:27.968Z,11.70
2024-05-09T18:56:33.009Z,7.82
2024-05-09T19:01:35.686Z,7.03
2024-05-09T19:06:38.198Z,9.13
2024-05-09T19:11:43.213Z,7.07
2024-05-09T19:16:45.507Z,7.40
2024-05-09T19:21:48.003Z,7.35
2024-05-09T19:26:53.224Z,6.82
2024-05-09T19:31:56.750Z,9.50
2024-05-09T19:36:59.277Z,4.57
2024-05-09T19:42:04.904Z,7.70
2024-05-09T19:47:07.178Z,5.38
2024-05-09T19:52:09.668Z,7.75
2024-05-09T19:57:14.753Z,6.75
2024-05-09T20:02:17.311Z,9.02
2024-05-09T20:07:19.929Z,14.75
2024-05-09T20:12:25.083Z,9.82
2024-05-09T20:17:27.375Z,7.80
2024-05-09T20:22:29.817Z,8.18
2024-05-09T20:27:34.991Z,7.43
2024-05-09T20:32:37.468Z,9.45
2024-05-09T20:37:39.907Z,8.32
2024-05-09T20:42:44.857Z,8.35
2024-05-09T20:47:47.255Z,8.57
2024-05-09T20:52:49.544Z,7.55
2024-05-09T21:02:56.394Z,7.18
2024-05-09T21:13:04.002Z,10.50
2024-05-09T21:18:06.837Z,14.50
2024-05-09T21:23:09.349Z,10.27
2024-05-09T21:28:14.503Z,9.75
2024-05-09T21:33:17.044Z,11.35
2024-05-09T21:38:19.523Z,10.70
2024-05-09T21:43:24.516Z,10.93
2024-05-09T21:48:26.960Z,13.80
2024-05-09T21:53:29.221Z,10.13
2024-05-09T21:58:34.168Z,8.25
2024-05-09T22:03:36.522Z,10.27
2024-05-09T22:08:38.847Z,10.50
2024-05-09T22:13:43.752Z,14.50
2024-05-09T22:18:46.108Z,10.88
2024-05-09T22:28:53.469Z,11.35
2024-05-09T22:33:55.984Z,10.85
2024-05-09T22:38:58.516Z,10.45
2024-05-09T22:44:03.373Z,9.10
2024-05-09T22:49:05.761Z,13.60
2024-05-09T22:54:08.108Z,8.05
2024-05-09T22:59:13.106Z,13.48
2024-05-09T23:04:15.408Z,9.88
2024-05-09T23:09:17.864Z,9.13
2024-05-09T23:14:22.856Z,9.07
2024-05-09T23:19:25.112Z,10.93
2024-05-09T23:24:27.638Z,14.35
2024-05-09T23:29:32.766Z,11.73
2024-05-09T23:34:35.118Z,11.75
2024-05-09T23:39:37.581Z,17.10
2024-05-09T23:44:42.558Z,12.55
2024-05-09T23:49:44.853Z,11.55
2024-05-09T23:54:47.186Z,9.88
2024-05-09T23:59:52.153Z,7.70
